Time;durP1;ratioP1;P1;durP2;ratioP2;P2;SDS_P1;SDS_P2;PMS_P1;PMS_P2;Temp;Humidity;BMP_temperature;BMP_pressure;BME280_temperature;BME280_humidity;BME280_pressure;Samples;Min_cycle;Max_cycle;Signal;HPM_P1;HPM_P2
2022/09/26 00:00:42;;;;;;;595.13;239.37;;;12.90;1.00;;;;;;6154298;23;20459;-84
2022/09/26 00:03:11;;;;;;;586.70;224.00;;;12.90;1.00;;;;;;6154387;23;20661;-83
2022/09/26 00:05:39;;;;;;;593.97;227.07;;;12.90;1.00;;;;;;6154738;23;20265;-84
2022/09/26 00:08:07;;;;;;;594.53;250.17;;;12.90;1.00;;;;;;6154378;23;20252;-84
2022/09/26 00:10:34;;;;;;;600.73;263.33;;;12.90;1.00;;;;;;6154614;23;20175;-84
2022/09/26 00:13:01;;;;;;;602.03;260.80;;;12.90;1.00;;;;;;6154303;23;20172;-84
2022/09/26 00:15:28;;;;;;;636.33;358.10;;;12.90;1.00;;;;;;6154304;23;20167;-83
2022/09/26 00:17:57;;;;;;;647.50;382.77;;;12.90;1.00;;;;;;6154072;23;20172;-83
2022/09/26 00:20:24;;;;;;;651.07;406.17;;;12.90;1.00;;;;;;6154134;23;20518;-84
2022/09/26 00:22:51;;;;;;;661.87;430.77;;;12.90;1.00;;;;;;6153891;23;20689;-83
2022/09/26 00:25:18;;;;;;;477.33;310.90;;;12.90;1.00;;;;;;6155454;23;20241;-84
2022/09/26 00:27:45;;;;;;;480.53;316.57;;;12.80;1.00;;;;;;6155972;23;20205;-84
2022/09/26 00:30:12;;;;;;;484.97;328.93;;;12.80;1.00;;;;;;6156095;23;20604;-84
2022/09/26 00:32:39;;;;;;;649.60;388.53;;;12.80;1.00;;;;;;6155910;23;20166;-84
2022/09/26 00:35:09;;;;;;;670.50;452.33;;;12.80;1.00;;;;;;6156171;23;20241;-84
2022/09/26 00:37:36;;;;;;;483.53;336.63;;;12.80;1.00;;;;;;6156894;23;20225;-83
2022/09/26 00:40:03;;;;;;;654.70;401.27;;;12.80;1.00;;;;;;6156616;23;20216;-83
2022/09/26 00:42:30;;;;;;;647.43;355.27;;;12.80;1.00;;;;;;6155993;23;20608;-84
2022/09/26 00:44:57;;;;;;;628.23;307.10;;;12.80;1.00;;;;;;6156221;23;20169;-83
2022/09/26 00:47:35;;;;;;;448.13;186.47;;;12.80;1.00;;;;;;6155860;23;20193;-83
2022/09/26 00:50:06;;;;;;;603.43;176.07;;;12.80;1.00;;;;;;6156037;23;20597;-83
2022/09/26 00:52:38;;;;;;;432.03;139.27;;;12.80;1.00;;;;;;6156229;23;20166;-84
2022/09/26 00:55:10;;;;;;;582.40;198.63;;;12.80;1.00;;;;;;6156478;23;20178;-83
2022/09/26 00:57:41;;;;;;;918.23;442.80;;;12.80;1.00;;;;;;6156639;23;20157;-83
2022/09/26 01:00:10;;;;;;;610.67;268.83;;;12.80;1.00;;;;;;6155782;23;20665;-84
2022/09/26 01:02:39;;;;;;;591.00;241.80;;;12.80;1.00;;;;;;6156463;23;20533;-83
2022/09/26 01:05:07;;;;;;;595.70;221.90;;;12.80;1.00;;;;;;6155800;23;20201;-83
2022/09/26 01:07:36;;;;;;;595.90;226.80;;;12.80;1.00;;;;;;6155877;23;20613;-83
2022/09/26 01:10:05;;;;;;;602.33;253.20;;;12.80;1.00;;;;;;6156410;23;20169;-83
2022/09/26 01:12:32;;;;;;;602.30;243.77;;;12.80;1.00;;;;;;6155674;23;20170;-84
2022/09/26 01:14:59;;;;;;;599.77;227.07;;;12.80;1.00;;;;;;6155675;23;20250;-84
2022/09/26 01:17:27;;;;;;;596.17;230.03;;;12.80;1.00;;;;;;6156086;23;20250;-83
2022/09/26 01:20:09;;;;;;;593.47;219.83;;;12.80;1.00;;;;;;6156003;23;20220;-83
2022/09/26 01:23:08;;;;;;;595.50;228.50;;;12.70;1.00;;;;;;6156436;23;20150;-84
2022/09/26 01:25:52;;;;;;;593.20;215.83;;;12.70;1.00;;;;;;6156324;23;20515;-83
2022/09/26 01:28:35;;;;;;;594.80;213.27;;;12.70;1.00;;;;;;6155498;23;20524;-83
2022/09/26 01:31:11;;;;;;;592.63;212.93;;;12.70;1.00;;;;;;6156128;23;20154;-83
2022/09/26 01:33:52;;;;;;;591.20;214.73;;;12.70;1.00;;;;;;6155507;23;20639;-83
2022/09/26 01:36:38;;;;;;;591.13;210.83;;;12.60;1.00;;;;;;6155624;23;20221;-83
2022/09/26 01:39:22;;;;;;;592.00;211.60;;;12.60;1.00;;;;;;6151339;23;20233;-83
2022/09/26 01:41:57;;;;;;;590.47;210.83;;;12.60;1.00;;;;;;6155472;23;20511;-83
2022/09/26 01:44:31;;;;;;;594.53;213.23;;;12.60;1.00;;;;;;6155912;23;20161;-83
2022/09/26 01:47:06;;;;;;;587.43;207.30;;;12.60;1.00;;;;;;6155719;23;20511;-83
2022/09/26 01:49:43;;;;;;;593.40;211.00;;;12.60;1.00;;;;;;6155702;23;20190;-83
2022/09/26 01:52:18;;;;;;;592.53;213.70;;;12.50;1.00;;;;;;6155777;23;20154;-83
2022/09/26 01:54:51;;;;;;;594.00;211.50;;;12.50;1.00;;;;;;6155319;23;20264;-83
2022/09/26 01:57:24;;;;;;;593.93;212.07;;;12.50;1.00;;;;;;6155399;23;20525;-84
2022/09/26 01:59:55;;;;;;;593.03;211.27;;;12.50;1.00;;;;;;6155742;23;20439;-84
2022/09/26 02:02:26;;;;;;;592.73;209.93;;;12.50;1.00;;;;;;6155778;23;20155;-83
2022/09/26 02:04:59;;;;;;;594.13;199.17;;;12.50;1.00;;;;;;6155938;23;20544;-83
2022/09/26 02:07:31;;;;;;;597.63;217.10;;;12.60;1.00;;;;;;6155519;23;20213;-83
2022/09/26 02:10:03;;;;;;;595.23;206.40;;;12.60;1.00;;;;;;6155183;23;20162;-83
2022/09/26 02:12:35;;;;;;;596.10;209.47;;;12.60;1.00;;;;;;6155277;23;20158;-83
2022/09/26 02:15:06;;;;;;;595.57;219.67;;;12.70;1.00;;;;;;6155101;23;20174;-83
2022/09/26 02:17:40;;;;;;;597.50;214.10;;;12.70;1.00;;;;;;6155635;23;20162;-83
2022/09/26 02:20:11;;;;;;;594.90;213.80;;;12.70;1.00;;;;;;6155346;23;20585;-83
2022/09/26 02:22:39;;;;;;;594.03;214.43;;;12.80;1.00;;;;;;6155137;23;20558;-83
2022/09/26 02:25:07;;;;;;;591.47;205.87;;;12.80;1.00;;;;;;6155734;23;20220;-83
2022/09/26 02:27:35;;;;;;;596.47;210.83;;;12.80;1.00;;;;;;6155237;23;20664;-83
2022/09/26 02:30:02;;;;;;;593.73;211.83;;;12.80;1.00;;;;;;6155062;23;20620;-83
2022/09/26 02:32:31;;;;;;;597.60;215.33;;;12.80;1.00;;;;;;6155346;23;20166;-83
2022/09/26 02:35:52;;;;;;;597.03;213.53;;;12.80;1.00;;;;;;6155154;23;20190;-83
2022/09/26 02:37:48;;;;;;;594.27;213.07;;;12.80;1.00;;;;;;6154875;23;20233;-83
2022/09/26 02:40:15;;;;;;;594.50;212.13;;;12.80;1.00;;;;;;6155347;23;20224;-83
2022/09/26 02:42:50;;;;;;;592.73;205.27;;;12.80;1.00;;;;;;6155109;23;20162;-83
2022/09/26 02:45:28;;;;;;;595.40;212.30;;;12.80;1.00;;;;;;6155253;23;20241;-83
2022/09/26 02:48:22;;;;;;;593.10;209.70;;;12.80;1.00;;;;;;6155031;23;20441;-83
2022/09/26 02:51:05;;;;;;;593.67;205.50;;;12.80;1.00;;;;;;6151139;23;20162;-83
2022/09/26 02:54:03;;;;;;;592.00;211.33;;;12.80;1.00;;;;;;6155307;23;20154;-83
2022/09/26 02:56:36;;;;;;;593.80;207.53;;;12.80;1.00;;;;;;6155130;23;20150;-83
2022/09/26 02:59:09;;;;;;;596.70;216.40;;;12.70;1.00;;;;;;6155036;23;20589;-84
2022/09/26 03:01:41;;;;;;;598.10;223.60;;;12.70;1.00;;;;;;6155401;23;20209;-83
2022/09/26 03:04:15;;;;;;;594.53;212.40;;;12.70;1.00;;;;;;6154738;23;20722;-84
2022/09/26 03:06:46;;;;;;;597.53;212.10;;;12.70;1.00;;;;;;6155253;23;20155;-84
2022/09/26 03:09:15;;;;;;;593.47;211.63;;;12.70;1.00;;;;;;6154735;23;20209;-83
2022/09/26 03:11:44;;;;;;;594.13;215.03;;;12.70;1.00;;;;;;6154995;23;20162;-83
2022/09/26 03:14:12;;;;;;;591.97;209.80;;;12.60;1.00;;;;;;6154500;23;20229;-84
2022/09/26 03:16:43;;;;;;;591.13;210.33;;;12.60;1.00;;;;;;6153368;23;20165;-83
2022/09/26 03:19:16;;;;;;;591.43;206.40;;;12.60;1.00;;;;;;6154582;23;20205;-83
2022/09/26 03:21:45;;;;;;;589.33;202.33;;;12.60;1.00;;;;;;6154068;23;20154;-84
2022/09/26 03:24:12;;;;;;;590.13;209.27;;;12.50;1.00;;;;;;6153771;23;20229;-83
2022/09/26 03:26:40;;;;;;;593.00;206.03;;;12.50;1.00;;;;;;6154766;23;20217;-83
2022/09/26 03:29:08;;;;;;;592.53;200.70;;;12.40;1.00;;;;;;6155373;23;20225;-84
2022/09/26 03:31:35;;;;;;;591.00;206.60;;;12.40;1.00;;;;;;6154957;23;20244;-84
2022/09/26 03:34:02;;;;;;;588.90;203.73;;;12.40;1.00;;;;;;6154617;23;20165;-82
2022/09/26 03:36:30;;;;;;;590.57;204.30;;;12.30;1.00;;;;;;6154324;23;20174;-84
2022/09/26 03:38:59;;;;;;;591.60;200.50;;;12.20;1.00;;;;;;6154408;23;20168;-83
2022/09/26 03:41:26;;;;;;;591.50;202.93;;;12.20;1.00;;;;;;6154755;23;20222;-83
2022/09/26 03:43:53;;;;;;;589.10;204.67;;;12.10;1.00;;;;;;6154450;23;20169;-83
2022/09/26 03:46:20;;;;;;;592.93;214.47;;;12.10;1.00;;;;;;6154453;23;20172;-84
2022/09/26 03:48:48;;;;;;;591.17;207.20;;;12.00;1.00;;;;;;6154926;23;20170;-83
2022/09/26 03:51:15;;;;;;;399.83;144.53;;;11.90;1.00;;;;;;6154488;23;20173;-84
2022/09/26 03:53:44;;;;;;;588.93;206.87;;;11.90;1.00;;;;;;6154472;23;20523;-84
2022/09/26 03:56:15;;;;;;;589.57;210.10;;;11.90;1.00;;;;;;6154375;23;20189;-84
2022/09/26 03:58:43;;;;;;;592.40;218.37;;;11.80;1.00;;;;;;6154603;23;20158;-83
2022/09/26 04:01:12;;;;;;;592.13;216.20;;;11.80;1.00;;;;;;6156403;23;20165;-83
2022/09/26 04:03:49;;;;;;;591.93;215.00;;;11.80;1.00;;;;;;6161028;23;20189;-86
2022/09/26 04:09:10;;;;;;;592.83;213.97;;;11.70;1.00;;;;;;6182572;23;20161;-86
2022/09/26 04:12:08;;;;;;;593.97;213.00;;;11.60;1.00;;;;;;6183019;23;20158;-87
2022/09/26 04:14:42;;;;;;;595.53;213.50;;;11.60;4.20;;;;;;6173666;23;20188;-86
2022/09/26 04:17:21;;;;;;;594.47;219.93;;;11.60;23.80;;;;;;6182233;23;20173;-87
2022/09/26 04:19:48;;;;;;;592.43;211.63;;;11.70;1.00;;;;;;6170098;23;20162;-84
2022/09/26 04:22:15;;;;;;;598.67;233.57;;;11.60;1.00;;;;;;6155467;23;20166;-84
2022/09/26 04:24:43;;;;;;;422.60;167.00;;;11.70;3.00;;;;;;6156632;23;20204;-82
2022/09/26 04:27:11;;;;;;;603.40;249.63;;;11.70;31.80;;;;;;6156936;23;20169;-83
2022/09/26 04:29:38;;;;;;;439.10;195.73;;;11.70;18.40;;;;;;6156020;23;20680;-83
2022/09/26 04:32:05;;;;;;;571.77;242.87;;;11.70;30.60;;;;;;6156630;23;20166;-85
2022/09/26 04:34:32;;;;;;;627.07;328.77;;;11.70;59.70;;;;;;6156531;23;20186;-83
2022/09/26 04:36:59;;;;;;;434.90;164.82;;;11.70;53.70;;;;;;6156158;23;20112;-83
2022/09/26 04:39:26;;;;;;;439.70;192.57;;;11.80;43.70;;;;;;6156662;23;20216;-84
2022/09/26 04:41:53;;;;;;;646.83;361.17;;;11.70;58.80;;;;;;6156478;23;20174;-83
2022/09/26 04:44:21;;;;;;;649.00;387.60;;;11.70;99.90;;;;;;6156521;23;20224;-83
2022/09/26 04:46:49;;;;;;;461.57;287.73;;;11.70;99.00;;;;;;6156204;23;20525;-85
2022/09/26 04:49:16;;;;;;;637.60;360.87;;;11.80;99.90;;;;;;6156452;23;20162;-83
2022/09/26 04:51:43;;;;;;;467.77;295.33;;;11.70;88.00;;;;;;6156446;23;20228;-84
2022/09/26 04:54:10;;;;;;;475.17;313.87;;;11.80;79.20;;;;;;6155783;23;20166;-82
2022/09/26 04:56:37;;;;;;;643.83;386.63;;;11.80;99.90;;;;;;6156035;23;20189;-83
2022/09/26 04:59:04;;;;;;;627.37;309.50;;;11.80;73.50;;;;;;6156442;23;20162;-84
2022/09/26 05:01:33;;;;;;;621.50;268.40;;;11.80;56.80;;;;;;6156306;23;20224;-84
2022/09/26 05:04:00;;;;;;;471.90;308.40;;;11.80;74.30;;;;;;6156265;23;20252;-84
2022/09/26 05:06:26;;;;;;;625.10;287.73;;;11.80;97.80;;;;;;6155863;23;20529;-84
2022/09/26 05:08:53;;;;;;;620.50;269.33;;;11.80;99.90;;;;;;6155541;23;20165;-84
2022/09/26 05:11:21;;;;;;;432.37;123.67;;;11.80;99.90;;;;;;6155788;23;20234;-85
2022/09/26 05:13:50;;;;;;;33.33;30.70;;;11.80;99.90;;;;;;6155718;23;20244;-84
2022/09/26 05:16:18;;;;;;;35.30;32.60;;;11.80;99.90;;;;;;6156356;23;20190;-88
2022/09/26 05:18:49;;;;;;;35.40;32.63;;;11.80;99.90;;;;;;6155833;23;20166;-87
2022/09/26 05:21:16;;;;;;;38.93;36.03;;;11.80;99.90;;;;;;6154452;23;20585;-86
2022/09/26 05:26:36;;;;;;;43.33;40.20;;;11.80;99.90;;;;;;6154031;23;20157;-87
2022/09/26 05:29:03;;;;;;;44.53;41.30;;;11.80;99.90;;;;;;6153822;23;20157;-86
2022/09/26 05:31:32;;;;;;;42.27;39.17;;;11.90;99.90;;;;;;6155185;23;20174;-87
2022/09/26 05:34:01;;;;;;;45.17;41.97;;;11.90;99.90;;;;;;6155819;23;20170;-88
2022/09/26 05:36:28;;;;;;;43.67;40.53;;;11.80;99.90;;;;;;6156224;23;20185;-88
2022/09/26 05:38:55;;;;;;;41.07;38.07;;;11.80;99.90;;;;;;6155859;23;20517;-87
2022/09/26 05:41:21;;;;;;;46.50;43.20;;;11.90;99.90;;;;;;6155790;23;20221;-88
2022/09/26 05:43:48;;;;;;;44.53;41.27;;;11.80;99.90;;;;;;6156065;23;20166;-86
2022/09/26 05:46:16;;;;;;;46.90;43.50;;;11.90;99.90;;;;;;6155671;23;20170;-88
2022/09/26 05:48:43;;;;;;;45.87;42.63;;;11.90;99.90;;;;;;6156087;23;20162;-88
2022/09/26 05:51:13;;;;;;;44.73;41.47;;;11.90;99.90;;;;;;6156275;23;20166;-86
2022/09/26 05:53:41;;;;;;;44.10;40.93;;;11.90;99.90;;;;;;6155066;23;20162;-88
2022/09/26 05:56:09;;;;;;;45.37;42.17;;;11.90;99.90;;;;;;6156183;23;20194;-86
2022/09/26 05:58:37;;;;;;;44.07;40.90;;;11.90;99.90;;;;;;6155771;23;20529;-87
2022/09/26 06:01:06;;;;;;;48.17;44.63;;;11.90;99.90;;;;;;6155628;23;20166;-86
2022/09/26 06:03:34;;;;;;;45.73;42.40;;;11.90;99.90;;;;;;6155218;23;20196;-88
2022/09/26 06:06:03;;;;;;;52.23;48.40;;;11.90;99.90;;;;;;6155477;23;20166;-86
2022/09/26 06:08:32;;;;;;;45.83;42.50;;;11.90;99.90;;;;;;6155758;23;20487;-88
2022/09/26 06:11:01;;;;;;;51.13;47.47;;;11.90;99.90;;;;;;6155870;23;20221;-86
2022/09/26 06:13:28;;;;;;;49.93;46.37;;;12.00;99.90;;;;;;6155843;23;20176;-86
2022/09/26 06:15:56;;;;;;;46.00;42.70;;;12.00;99.90;;;;;;6155114;23;20189;-86
2022/09/26 06:18:23;;;;;;;45.23;41.90;;;12.00;99.90;;;;;;6155813;23;20166;-87
2022/09/26 06:20:50;;;;;;;39.97;37.00;;;12.00;99.90;;;;;;6155215;23;20517;-87
2022/09/26 06:23:17;;;;;;;54.27;48.43;;;12.00;99.90;;;;;;6155512;23;20220;-88
2022/09/26 06:25:45;;;;;;;42.00;38.80;;;12.00;99.90;;;;;;6155954;23;20170;-87
2022/09/26 06:28:12;;;;;;;38.00;35.13;;;12.10;99.90;;;;;;6155679;23;20465;-86
2022/09/26 06:30:39;;;;;;;39.70;36.67;;;12.10;99.90;;;;;;6155888;23;20162;-85
2022/09/26 06:33:06;;;;;;;43.43;39.87;;;12.10;99.90;;;;;;6155165;23;20170;-86
2022/09/26 06:35:34;;;;;;;39.90;36.87;;;12.10;99.90;;;;;;6155119;23;20240;-86
2022/09/26 06:38:03;;;;;;;41.40;38.30;;;12.20;99.90;;;;;;6155516;23;20224;-85
2022/09/26 06:40:32;;;;;;;41.60;38.47;;;12.20;99.90;;;;;;6155589;23;20170;-88
2022/09/26 06:43:01;;;;;;;42.43;39.30;;;12.20;99.90;;;;;;6155429;23;20194;-86
2022/09/26 06:45:28;;;;;;;47.17;43.83;;;12.20;99.90;;;;;;6155029;23;20170;-86
2022/09/26 06:47:55;;;;;;;50.57;47.07;;;12.20;99.90;;;;;;6155180;23;20451;-87
2022/09/26 06:50:22;;;;;;;45.80;42.53;;;12.20;99.90;;;;;;6155609;23;20161;-87
2022/09/26 06:52:50;;;;;;;48.30;44.87;;;12.20;99.90;;;;;;6155598;23;20623;-86
2022/09/26 06:55:17;;;;;;;52.53;48.93;;;12.20;99.90;;;;;;6155085;23;20190;-88
2022/09/26 06:57:44;;;;;;;50.40;46.83;;;12.30;99.90;;;;;;6155351;23;20165;-87
2022/09/26 07:00:15;;;;;;;48.10;44.73;;;12.30;99.90;;;;;;6155475;23;20515;-86
2022/09/26 07:02:50;;;;;;;50.67;47.27;;;12.30;99.90;;;;;;6155154;23;20166;-86
2022/09/26 07:05:17;;;;;;;50.10;46.73;;;12.40;99.90;;;;;;6155282;23;20150;-86
2022/09/26 07:07:46;;;;;;;48.77;45.33;;;12.40;99.90;;;;;;6155539;23;20233;-87
2022/09/26 07:10:14;;;;;;;47.57;44.13;;;12.40;99.90;;;;;;6155498;23;20197;-86
2022/09/26 07:12:43;;;;;;;49.50;45.97;;;12.50;99.90;;;;;;6155173;23;20170;-86
2022/09/26 07:15:12;;;;;;;39.47;36.53;;;12.50;99.90;;;;;;6155177;23;20169;-86
2022/09/26 07:17:39;;;;;;;39.90;36.90;;;12.50;99.90;;;;;;6154883;23;20168;-86
2022/09/26 07:20:09;;;;;;;44.40;41.27;;;12.60;97.60;;;;;;6155085;23;20252;-87
2022/09/26 07:22:36;;;;;;;47.33;44.00;;;12.60;80.40;;;;;;6154874;23;20608;-86
2022/09/26 07:25:03;;;;;;;50.27;46.80;;;12.60;99.90;;;;;;6154883;23;20192;-87
2022/09/26 07:27:31;;;;;;;50.50;46.90;;;12.70;99.90;;;;;;6155250;23;20162;-86
2022/09/26 07:29:58;;;;;;;56.97;53.03;;;12.70;99.90;;;;;;6154849;23;20170;-86
2022/09/26 07:32:26;;;;;;;56.03;52.10;;;12.80;99.90;;;;;;6154682;23;20165;-87
2022/09/26 07:34:53;;;;;;;57.03;53.20;;;12.80;99.90;;;;;;6154801;23;20225;-87
2022/09/26 07:37:21;;;;;;;57.13;53.40;;;12.90;99.90;;;;;;6154963;23;20182;-86
2022/09/26 07:39:48;;;;;;;62.80;58.80;;;12.90;99.90;;;;;;6155010;23;20170;-86
2022/09/26 07:42:16;;;;;;;67.53;63.40;;;13.00;81.00;;;;;;6155534;23;20170;-86
2022/09/26 07:44:43;;;;;;;66.27;62.13;;;13.10;99.90;;;;;;6155311;23;20219;-86
2022/09/26 07:50:12;;;;;;;61.00;57.23;;;13.20;99.90;;;;;;6154933;23;20470;-87
2022/09/26 07:52:39;;;;;;;66.37;62.37;;;13.40;99.90;;;;;;6154734;23;20206;-86
2022/09/26 07:55:07;;;;;;;65.43;61.47;;;13.50;65.60;;;;;;6154335;23;20166;-87
2022/09/26 07:57:34;;;;;;;75.10;70.70;;;13.50;62.80;;;;;;6154589;23;20186;-85
2022/09/26 08:00:02;;;;;;;88.33;82.83;;;13.60;69.60;;;;;;6154450;23;20248;-86
2022/09/26 08:02:34;;;;;;;78.73;74.07;;;13.70;71.70;;;;;;6154960;23;20481;-87
2022/09/26 08:05:03;;;;;;;73.67;69.20;;;13.70;67.20;;;;;;6154994;23;20252;-88
2022/09/26 08:07:31;;;;;;;70.07;65.63;;;13.80;61.30;;;;;;6154895;23;20198;-87
2022/09/26 08:10:00;;;;;;;61.07;57.30;;;13.80;60.20;;;;;;6154902;23;20170;-88
2022/09/26 08:12:28;;;;;;;64.73;60.03;;;13.80;60.00;;;;;;6154555;23;20476;-88
2022/09/26 08:14:55;;;;;;;63.47;59.60;;;13.80;79.70;;;;;;6154939;23;20162;-87
2022/09/26 08:17:22;;;;;;;67.50;63.43;;;13.80;45.90;;;;;;6154865;23;20190;-86
2022/09/26 08:19:49;;;;;;;70.80;66.27;;;13.90;45.10;;;;;;6155021;23;20166;-87
2022/09/26 08:22:17;;;;;;;69.67;65.57;;;13.90;46.20;;;;;;6155230;23;20245;-86
2022/09/26 08:24:48;;;;;;;68.00;63.97;;;14.00;37.20;;;;;;6154714;23;20168;-88
2022/09/26 08:27:15;;;;;;;71.07;66.60;;;14.10;56.10;;;;;;6154789;23;20647;-88
2022/09/26 08:29:47;;;;;;;83.80;79.17;;;14.10;20.00;;;;;;6154464;23;20170;-87
2022/09/26 08:32:14;;;;;;;67.93;63.90;;;14.20;4.00;;;;;;6154598;23;20154;-86
2022/09/26 08:34:41;;;;;;;64.73;60.80;;;14.20;1.00;;;;;;6154927;23;20163;-86
2022/09/26 08:37:08;;;;;;;71.10;66.77;;;14.20;1.00;;;;;;6154918;23;20255;-87
2022/09/26 08:39:38;;;;;;;69.77;65.43;;;14.20;1.00;;;;;;6154798;23;20212;-87
2022/09/26 08:42:22;;;;;;;70.43;66.13;;;14.10;1.00;;;;;;6154863;23;20197;-87
2022/09/26 08:48:12;;;;;;;73.43;69.03;;;14.00;1.00;;;;;;6156511;23;20154;-88
2022/09/26 08:50:46;;;;;;;75.47;71.07;;;13.90;1.00;;;;;;6156381;23;20497;-87
2022/09/26 08:53:17;;;;;;;89.17;84.13;;;13.90;1.00;;;;;;6156239;23;20438;-87
2022/09/26 08:55:48;;;;;;;86.27;81.00;;;13.90;1.00;;;;;;6156613;23;20150;-86
2022/09/26 08:58:18;;;;;;;96.57;91.20;;;14.00;1.00;;;;;;6156577;23;20209;-84
2022/09/26 09:00:47;;;;;;;98.77;93.50;;;14.00;1.00;;;;;;6156536;23;20150;-86
2022/09/26 09:03:26;;;;;;;94.63;89.70;;;14.00;1.00;;;;;;6156273;23;20190;-87
2022/09/26 09:05:59;;;;;;;101.77;96.43;;;14.00;1.00;;;;;;6156283;23;20162;-87
2022/09/26 09:08:34;;;;;;;98.30;93.17;;;14.10;1.00;;;;;;6156692;23;20209;-87
2022/09/26 09:11:12;;;;;;;109.17;103.13;;;14.20;1.00;;;;;;6156606;23;20453;-89
2022/09/26 09:13:54;;;;;;;101.07;95.87;;;14.30;1.00;;;;;;6156619;23;20501;-88
2022/09/26 09:16:31;;;;;;;103.43;98.03;;;14.40;1.00;;;;;;6156750;23;20170;-88
2022/09/26 09:19:11;;;;;;;99.43;94.30;;;14.50;1.00;;;;;;6156433;23;20213;-88
2022/09/26 09:21:55;;;;;;;101.23;96.00;;;14.50;1.00;;;;;;6156077;23;20295;-89
2022/09/26 09:24:36;;;;;;;106.87;101.20;;;14.50;1.00;;;;;;6156631;23;20201;-89
2022/09/26 09:27:20;;;;;;;101.80;96.03;;;14.50;1.00;;;;;;6156469;23;20157;-87
2022/09/26 09:30:01;;;;;;;102.80;97.40;;;14.50;1.00;;;;;;6156402;23;20177;-87
2022/09/26 09:32:32;;;;;;;99.07;93.30;;;14.50;1.00;;;;;;6155915;23;20186;-88
2022/09/26 09:35:02;;;;;;;100.67;95.47;;;14.50;1.00;;;;;;6156407;23;20208;-88
2022/09/26 09:37:41;;;;;;;110.83;104.73;;;14.70;1.00;;;;;;6155579;23;20190;-88
2022/09/26 09:40:14;;;;;;;110.13;104.27;;;14.90;1.00;;;;;;6155879;23;20159;-89
2022/09/26 09:42:50;;;;;;;110.93;104.90;;;15.10;1.00;;;;;;6155932;23;20154;-88
2022/09/26 09:45:20;;;;;;;92.90;87.87;;;15.30;1.00;;;;;;6156225;23;20224;-87
2022/09/26 09:47:47;;;;;;;107.70;102.00;;;15.40;1.00;;;;;;6156192;23;20521;-88
2022/09/26 09:50:18;;;;;;;96.97;91.47;;;15.50;1.00;;;;;;6156266;23;20170;-85
2022/09/26 09:52:56;;;;;;;106.73;101.17;;;15.60;1.00;;;;;;6156296;23;20150;-85
2022/09/26 09:55:38;;;;;;;106.47;100.47;;;15.50;1.00;;;;;;6156584;23;20150;-87
2022/09/26 09:58:26;;;;;;;111.90;106.10;;;15.50;1.00;;;;;;6155609;23;20200;-85
2022/09/26 10:01:05;;;;;;;115.77;109.70;;;15.50;1.00;;;;;;6156144;23;20601;-86
2022/09/26 10:03:39;;;;;;;111.03;105.03;;;15.50;1.00;;;;;;6155773;23;20243;-87
2022/09/26 10:06:08;;;;;;;101.97;96.67;;;15.40;1.00;;;;;;6155761;23;20186;-88
2022/09/26 10:08:40;;;;;;;92.90;88.07;;;15.40;1.00;;;;;;6156009;23;20162;-87
2022/09/26 10:11:18;;;;;;;96.63;91.63;;;15.40;1.00;;;;;;6156564;23;20209;-88
2022/09/26 10:13:52;;;;;;;97.40;92.13;;;15.50;1.00;;;;;;6155977;23;20450;-87
2022/09/26 10:16:20;;;;;;;103.00;97.50;;;15.60;1.00;;;;;;6155892;23;20188;-88
2022/09/26 10:18:55;;;;;;;104.90;98.90;;;15.70;1.00;;;;;;6155469;23;20162;-86
2022/09/26 10:21:29;;;;;;;107.37;101.70;;;15.70;1.00;;;;;;6155846;23;20168;-85
2022/09/26 10:23:57;;;;;;;106.33;100.93;;;15.70;1.00;;;;;;6155565;23;20153;-85
2022/09/26 10:26:33;;;;;;;104.10;98.73;;;15.80;1.00;;;;;;6156149;23;20205;-85
2022/09/26 10:29:06;;;;;;;110.97;104.87;;;15.90;1.00;;;;;;6155890;23;20150;-85
2022/09/26 10:31:36;;;;;;;116.13;110.07;;;16.10;1.00;;;;;;6155924;23;20193;-85
2022/09/26 10:34:06;;;;;;;124.17;116.77;;;16.30;1.00;;;;;;6156008;23;20526;-85
2022/09/26 10:36:36;;;;;;;122.43;115.20;;;16.60;1.00;;;;;;6155299;23;20190;-86
2022/09/26 10:41:57;;;;;;;124.63;117.43;;;17.00;1.00;;;;;;6155615;23;20158;-88
2022/09/26 10:44:28;;;;;;;111.53;105.80;;;17.10;1.00;;;;;;6155927;23;20169;-85
2022/09/26 10:46:59;;;;;;;121.33;114.80;;;17.10;1.00;;;;;;6155656;23;20592;-88
2022/09/26 10:49:35;;;;;;;120.50;114.07;;;17.10;1.00;;;;;;6155756;23;20213;-88
2022/09/26 10:52:10;;;;;;;126.77;119.70;;;17.30;1.00;;;;;;6155660;23;20232;-88
2022/09/26 10:54:41;;;;;;;122.77;115.83;;;17.50;1.00;;;;;;6155770;23;20212;-86
2022/09/26 10:57:21;;;;;;;133.93;124.60;;;17.60;1.00;;;;;;6155613;23;20632;-85
2022/09/26 10:59:53;;;;;;;117.90;111.67;;;17.70;1.00;;;;;;6155297;23;20161;-86
2022/09/26 11:02:23;;;;;;;120.53;114.47;;;17.80;1.00;;;;;;6155202;23;20158;-86
2022/09/26 11:07:43;;;;;;;131.50;124.73;;;17.90;1.00;;;;;;6155399;23;20176;-88
2022/09/26 11:10:12;;;;;;;135.80;128.57;;;17.80;1.00;;;;;;6155097;23;20244;-85
2022/09/26 11:12:56;;;;;;;137.27;129.67;;;17.80;1.00;;;;;;6154941;23;20621;-88
2022/09/26 11:15:25;;;;;;;152.90;143.20;;;17.90;1.00;;;;;;6155389;23;20360;-87
2022/09/26 11:17:54;;;;;;;133.57;126.40;;;17.90;1.00;;;;;;6155240;23;20683;-86
2022/09/26 11:20:37;;;;;;;121.30;115.17;;;17.80;1.00;;;;;;6155268;23;20482;-86
2022/09/26 11:23:13;;;;;;;126.33;118.93;;;17.80;1.00;;;;;;6155612;23;20150;-86
2022/09/26 11:25:53;;;;;;;116.47;110.53;;;17.70;1.00;;;;;;6155376;23;20157;-86
2022/09/26 11:28:26;;;;;;;123.43;117.00;;;17.60;1.00;;;;;;6154998;23;20158;-85
2022/09/26 11:31:02;;;;;;;120.27;114.00;;;17.60;1.00;;;;;;6155369;23;20522;-88
2022/09/26 11:33:29;;;;;;;120.07;113.80;;;17.60;1.00;;;;;;6155583;23;20159;-85
2022/09/26 11:36:09;;;;;;;126.63;120.37;;;17.60;1.00;;;;;;6155071;23;20165;-87
2022/09/26 11:38:43;;;;;;;123.50;116.63;;;17.40;1.00;;;;;;6155169;23;20181;-86
2022/09/26 11:41:36;;;;;;;122.93;116.73;;;17.40;1.00;;;;;;6154969;23;20154;-87
2022/09/26 11:44:34;;;;;;;121.53;115.37;;;17.50;1.00;;;;;;6155198;23;20224;-86
2022/09/26 11:47:35;;;;;;;126.07;119.70;;;17.50;1.00;;;;;;6155350;23;20166;-85
2022/09/26 11:50:38;;;;;;;120.73;114.67;;;17.40;1.00;;;;;;6147887;23;20224;-87
2022/09/26 11:53:28;;;;;;;116.33;110.43;;;17.30;1.00;;;;;;6155195;23;20154;-85
2022/09/26 11:56:07;;;;;;;106.43;100.73;;;17.30;1.00;;;;;;6154721;23;20229;-86
2022/09/26 11:58:43;;;;;;;88.30;83.43;;;17.40;1.00;;;;;;6154488;23;20536;-86
2022/09/26 12:01:22;;;;;;;90.57;85.70;;;17.40;1.00;;;;;;6155093;23;20151;-85
2022/09/26 12:04:20;;;;;;;98.90;93.50;;;17.50;1.00;;;;;;6154685;23;20189;-86
2022/09/26 12:06:56;;;;;;;100.30;94.87;;;17.60;1.00;;;;;;6155032;23;20158;-86
2022/09/26 12:09:44;;;;;;;100.90;95.60;;;17.60;1.00;;;;;;6154633;23;20208;-86
2022/09/26 12:12:17;;;;;;;102.07;96.63;;;17.60;1.00;;;;;;6154644;23;20154;-85
2022/09/26 12:15:04;;;;;;;102.67;97.30;;;17.60;1.00;;;;;;6154625;23;20158;-85
2022/09/26 12:17:43;;;;;;;112.13;105.63;;;17.60;1.00;;;;;;6154869;23;20177;-85
2022/09/26 12:20:24;;;;;;;110.67;104.27;;;17.70;1.00;;;;;;6154706;23;20158;-86
2022/09/26 12:22:59;;;;;;;115.70;108.70;;;17.70;1.00;;;;;;6156795;23;20515;-86
2022/09/26 12:25:38;;;;;;;122.70;115.57;;;17.70;1.00;;;;;;6156662;23;20518;-85
2022/09/26 12:28:19;;;;;;;119.77;113.23;;;17.60;1.00;;;;;;6157049;23;20228;-86
2022/09/26 12:30:53;;;;;;;113.73;107.97;;;17.60;1.00;;;;;;6157052;23;20190;-86
2022/09/26 12:33:47;;;;;;;114.83;108.53;;;17.70;1.00;;;;;;6156531;23;20659;-86
2022/09/26 12:36:23;;;;;;;121.40;114.63;;;17.80;1.00;;;;;;6156828;23;20162;-86
2022/09/26 12:39:08;;;;;;;111.73;106.03;;;17.90;1.00;;;;;;6156337;23;20636;-87
2022/09/26 12:42:06;;;;;;;108.30;102.83;;;17.90;1.00;;;;;;6156839;23;20213;-86
2022/09/26 12:44:57;;;;;;;112.53;106.87;;;17.90;1.00;;;;;;6156389;23;20169;-86
2022/09/26 12:48:02;;;;;;;111.03;105.40;;;18.00;1.00;;;;;;6131765;23;20174;-86
2022/09/26 12:50:36;;;;;;;108.03;102.23;;;18.00;1.00;;;;;;6038155;23;20157;-86
2022/09/26 12:53:38;;;;;;;108.40;102.80;;;18.10;1.00;;;;;;6141330;23;20161;-86
2022/09/26 12:56:09;;;;;;;103.50;98.28;;;18.00;1.00;;;;;;6151635;23;20539;-85
2022/09/26 12:58:52;;;;;;;93.28;88.13;;;17.90;1.00;;;;;;6156259;23;20193;-86
2022/09/26 13:01:46;;;;;;;118.80;112.53;;;17.70;1.00;;;;;;6156463;23;20165;-86
2022/09/26 13:04:34;;;;;;;109.63;104.03;;;17.50;1.00;;;;;;6156465;23;20186;-85